Samaria, South Carolina
Current Conditions -  °F | °C
As of 11:15 PM on Tuesday 25 Nov 2014 (Local Time) from KAIK Reporting Station
Moderate Rain Moderate Rain  
Wind Chill: 50°   Ceiling: 1500
Heat Index: 50°   Visibility: 7mi
Dew Point: 50°   Wind: 8mph
Humidity: 100%   Direction: 300°WNW
Pressure: 30.04"   Gusts: NA
Location:  33.9549°N, 81.564°W
Report Text: KAIK 260415Z AUTO 30007KT 7SM RA BKN015 OVC020 10/10 A3004 RMK AO2 PNO
Loading
Personal Weather Stations






























Interactive Weather Map New forecast layout! Learn more

10-Day Weather Forecast

Advertisements
Track Severe Weather on mobile